createdAt,value
2018-11-07T00:00:56.338Z,6.82
2018-11-07T00:03:26.803Z,6.80
2018-11-07T00:05:57.056Z,6.76
2018-11-07T00:08:27.222Z,6.75
2018-11-07T00:10:57.718Z,6.73
2018-11-07T00:13:27.975Z,6.70
2018-11-07T00:15:58.007Z,6.50
2018-11-07T00:18:29.171Z,6.74
2018-11-07T00:20:59.407Z,6.76
2018-11-07T00:23:30.515Z,6.77
2018-11-07T00:26:00.523Z,6.61
2018-11-07T00:28:31.074Z,6.85
2018-11-07T00:31:01.267Z,6.89
2018-11-07T00:33:31.313Z,6.92
2018-11-07T00:36:01.551Z,6.93
2018-11-07T00:38:32.031Z,6.91
2018-11-07T00:41:02.140Z,6.87
2018-11-07T00:43:32.343Z,6.54
2018-11-07T00:46:02.868Z,6.82
2018-11-07T00:48:33.049Z,6.79
2018-11-07T00:51:03.279Z,6.75
2018-11-07T00:53:33.474Z,6.74
2018-11-07T00:56:04.020Z,6.72
2018-11-07T00:58:34.223Z,6.71
2018-11-07T01:01:04.602Z,6.69
2018-11-07T01:03:35.163Z,6.54
2018-11-07T01:06:05.403Z,6.62
2018-11-07T01:08:35.604Z,6.63
2018-11-07T01:11:06.565Z,6.62
2018-11-07T01:13:37.543Z,6.61
2018-11-07T01:16:07.844Z,6.60
2018-11-07T01:18:38.309Z,6.48
2018-11-07T01:21:08.364Z,6.62
2018-11-07T01:23:38.556Z,6.63
2018-11-07T01:26:08.997Z,6.63
2018-11-07T01:28:40.028Z,6.41
2018-11-07T01:31:10.078Z,6.62
2018-11-07T01:33:40.579Z,6.62
2018-11-07T01:36:10.603Z,6.59
2018-11-07T01:38:41.139Z,6.61
2018-11-07T01:41:11.595Z,6.61
2018-11-07T01:43:41.551Z,6.58
2018-11-07T01:46:12.251Z,6.59
2018-11-07T01:48:42.747Z,6.56
2018-11-07T01:51:12.992Z,6.54
2018-11-07T01:53:43.060Z,6.54
2018-11-07T01:56:13.550Z,6.55
2018-11-07T01:58:43.775Z,6.56
2018-11-07T02:01:13.955Z,6.56
2018-11-07T02:03:44.556Z,6.53
2018-11-07T02:06:14.539Z,6.56
2018-11-07T02:08:44.635Z,6.55
2018-11-07T02:11:14.880Z,6.55
2018-11-07T02:13:45.429Z,6.53
2018-11-07T02:16:15.502Z,6.53
2018-11-07T02:18:45.693Z,6.52
2018-11-07T02:21:16.470Z,6.53
2018-11-07T02:23:46.342Z,6.54
2018-11-07T02:26:16.512Z,6.53
2018-11-07T02:28:46.961Z,6.53
2018-11-07T02:31:17.088Z,6.52
2018-11-07T02:33:47.228Z,6.53
2018-11-07T02:36:17.951Z,6.55
2018-11-07T02:38:48.191Z,6.56
2018-11-07T02:41:18.278Z,6.57
2018-11-07T02:43:48.283Z,6.58
2018-11-07T02:46:18.722Z,6.57
2018-11-07T02:48:48.918Z,6.57
2018-11-07T02:51:19.050Z,6.55
2018-11-07T02:53:49.343Z,6.55
2018-11-07T02:56:19.399Z,6.55
2018-11-07T03:03:50.775Z,6.53
2018-11-07T03:06:21.094Z,6.47
2018-11-07T03:08:51.151Z,6.45
2018-11-07T03:11:21.404Z,6.42
2018-11-07T03:13:51.610Z,6.41
2018-11-07T03:16:21.785Z,6.42
2018-11-07T03:18:52.430Z,6.42
2018-11-07T03:21:22.551Z,6.42
2018-11-07T03:23:52.879Z,6.42
2018-11-07T03:26:23.415Z,6.09
2018-11-07T03:28:53.610Z,6.46
2018-11-07T03:31:23.604Z,6.51
2018-11-07T03:33:54.359Z,6.54
2018-11-07T03:36:24.500Z,6.55
2018-11-07T03:38:54.519Z,6.55
2018-11-07T03:41:24.779Z,6.55
2018-11-07T03:43:56.286Z,6.55
2018-11-07T03:46:26.398Z,6.43
2018-11-07T03:48:56.287Z,5.88
2018-11-07T03:51:26.434Z,5.77
2018-11-07T03:53:56.443Z,5.40
2018-11-07T03:56:26.411Z,6.43
2018-11-07T03:58:57.123Z,6.41
2018-11-07T04:01:27.374Z,6.36
2018-11-07T04:03:57.330Z,6.36
2018-11-07T04:06:27.740Z,6.33
2018-11-07T04:08:57.659Z,5.53
2018-11-07T04:11:27.838Z,6.26
2018-11-07T04:13:57.652Z,6.22
2018-11-07T04:16:28.147Z,6.19
2018-11-07T04:18:58.321Z,6.14
2018-11-07T04:21:28.526Z,6.13
2018-11-07T04:24:01.828Z,6.09
2018-11-07T04:26:33.784Z,5.82
2018-11-07T04:29:04.119Z,5.92
2018-11-07T04:31:35.476Z,5.99
2018-11-07T04:34:05.637Z,5.97
2018-11-07T04:36:35.797Z,5.69
2018-11-07T04:39:08.310Z,5.90
2018-11-07T04:41:38.723Z,5.88
2018-11-07T04:44:09.416Z,5.86
2018-11-07T04:46:39.523Z,5.84
2018-11-07T04:49:09.420Z,5.82
2018-11-07T04:51:39.500Z,4.83
2018-11-07T04:54:09.811Z,5.78
2018-11-07T04:56:40.616Z,5.76
2018-11-07T04:59:10.986Z,5.71
2018-11-07T05:01:40.614Z,5.71
2018-11-07T05:04:11.187Z,5.73
2018-11-07T05:06:40.979Z,5.76
2018-11-07T05:09:11.082Z,5.83
2018-11-07T05:11:40.911Z,5.89
2018-11-07T05:14:11.603Z,5.93
2018-11-07T05:16:41.871Z,5.97
2018-11-07T05:19:13.379Z,6.02
2018-11-07T05:21:42.890Z,6.04
2018-11-07T05:24:13.114Z,6.03
2018-11-07T05:26:43.101Z,5.92
2018-11-07T05:29:14.703Z,5.97
2018-11-07T05:31:44.332Z,5.97
2018-11-07T05:34:13.951Z,5.96
2018-11-07T05:36:44.422Z,5.64
2018-11-07T05:39:14.517Z,5.90
2018-11-07T05:41:44.652Z,5.86
2018-11-07T05:44:15.139Z,5.84
2018-11-07T05:46:45.407Z,5.81
2018-11-07T05:49:14.941Z,5.58
2018-11-07T05:51:45.387Z,4.62
2018-11-07T05:54:16.107Z,5.76
2018-11-07T05:56:45.675Z,5.74
2018-11-07T05:59:15.638Z,5.71
2018-11-07T06:01:45.673Z,5.69
2018-11-07T06:04:15.249Z,5.68
2018-11-07T06:06:45.786Z,5.68
2018-11-07T06:09:15.399Z,5.67
2018-11-07T06:11:45.543Z,5.64
2018-11-07T06:14:15.671Z,5.62
2018-11-07T06:16:45.242Z,5.60
2018-11-07T06:19:14.755Z,5.57
2018-11-07T06:21:44.588Z,5.55
2018-11-07T06:24:14.269Z,5.53
2018-11-07T06:26:44.546Z,5.51
2018-11-07T06:29:15.072Z,5.49
2018-11-07T06:31:45.027Z,5.48
2018-11-07T06:34:14.604Z,5.47
2018-11-07T06:36:44.932Z,5.48
2018-11-07T06:39:15.055Z,5.50
2018-11-07T06:41:44.613Z,5.54
2018-11-07T06:44:14.478Z,5.59
2018-11-07T06:46:44.585Z,5.65
2018-11-07T06:49:14.753Z,5.69
2018-11-07T06:51:44.698Z,5.74
2018-11-07T06:54:14.859Z,5.76
2018-11-07T06:56:44.922Z,5.77
2018-11-07T06:59:16.289Z,5.78
2018-11-07T07:01:45.828Z,5.25
2018-11-07T07:04:15.923Z,5.78
2018-11-07T07:06:45.854Z,4.98
2018-11-07T07:09:15.963Z,5.85
2018-11-07T07:11:45.487Z,5.87
2018-11-07T07:14:15.611Z,5.89
2018-11-07T07:16:49.422Z,5.90
2018-11-07T07:19:18.962Z,5.96
2018-11-07T07:21:48.535Z,6.00
2018-11-07T07:24:18.855Z,6.03
2018-11-07T07:26:48.472Z,6.07
2018-11-07T07:29:18.050Z,6.13
2018-11-07T07:31:48.371Z,6.20
2018-11-07T07:34:18.558Z,6.27
2018-11-07T07:36:48.591Z,5.29
2018-11-07T07:39:18.987Z,6.44
2018-11-07T07:41:48.539Z,6.46
2018-11-07T07:44:18.505Z,6.68
2018-11-07T07:46:48.075Z,6.81
2018-11-07T07:49:18.599Z,6.96
2018-11-07T07:51:48.190Z,7.11
2018-11-07T07:54:17.726Z,7.27
2018-11-07T07:56:48.043Z,7.42
2018-11-07T07:59:17.643Z,7.57
2018-11-07T08:01:48.414Z,7.71
2018-11-07T08:04:19.424Z,7.85
2018-11-07T08:06:48.973Z,7.97
2018-11-07T08:09:19.081Z,8.08
2018-11-07T08:11:48.933Z,8.20
2018-11-07T08:14:19.075Z,7.99
2018-11-07T08:16:48.643Z,8.41
2018-11-07T08:19:19.845Z,8.49
2018-11-07T08:21:49.894Z,8.60
2018-11-07T08:24:19.915Z,8.70
2018-11-07T08:26:50.359Z,8.67
2018-11-07T08:29:20.274Z,8.94
2018-11-07T08:31:49.811Z,9.10
2018-11-07T08:34:19.623Z,9.23
2018-11-07T08:36:49.159Z,9.33
2018-11-07T08:39:20.735Z,9.42
2018-11-07T08:41:50.871Z,9.57
2018-11-07T08:44:21.514Z,9.68
2018-11-07T08:46:51.115Z,9.78
2018-11-07T08:49:21.199Z,8.87
2018-11-07T08:51:51.351Z,10.07
2018-11-07T08:54:21.034Z,10.19
2018-11-07T08:56:51.755Z,10.30
2018-11-07T08:59:21.912Z,10.40
2018-11-07T09:01:51.496Z,10.52
2018-11-07T09:04:22.094Z,10.42
2018-11-07T09:06:51.728Z,10.78
2018-11-07T09:09:21.795Z,11.00
2018-11-07T09:11:51.608Z,11.08
2018-11-07T09:14:21.974Z,11.27
2018-11-07T09:16:52.087Z,11.34
2018-11-07T09:19:22.216Z,11.40
2018-11-07T09:21:52.885Z,11.47
2018-11-07T09:24:23.267Z,11.57
2018-11-07T09:26:52.843Z,11.72
2018-11-07T09:29:23.207Z,11.52
2018-11-07T09:31:52.900Z,11.85
2018-11-07T09:34:23.038Z,11.91
2018-11-07T09:36:52.918Z,11.74
2018-11-07T09:39:22.443Z,11.91
2018-11-07T09:41:52.511Z,11.78
2018-11-07T09:44:22.999Z,12.19
2018-11-07T09:46:52.599Z,12.27
2018-11-07T09:49:23.179Z,12.17
2018-11-07T09:51:53.188Z,12.60
2018-11-07T09:54:23.366Z,12.75
2018-11-07T09:56:52.923Z,12.83
2018-11-07T09:59:23.617Z,12.90
2018-11-07T10:01:53.631Z,12.44
2018-11-07T10:04:23.623Z,13.07
2018-11-07T10:06:53.807Z,13.26
2018-11-07T10:09:23.391Z,13.43
2018-11-07T10:11:53.762Z,13.61
2018-11-07T10:14:23.807Z,13.42
2018-11-07T10:16:53.349Z,13.92
2018-11-07T10:19:23.178Z,14.05
2018-11-07T10:21:53.463Z,14.08
2018-11-07T10:24:23.575Z,14.02
2018-11-07T10:26:53.621Z,12.87
2018-11-07T10:29:23.465Z,14.20
2018-11-07T10:31:52.763Z,14.37
2018-11-07T10:34:22.814Z,14.43
2018-11-07T10:36:52.551Z,14.56
2018-11-07T10:39:22.129Z,14.74
2018-11-07T10:41:51.914Z,14.98
2018-11-07T10:44:21.574Z,15.18
2018-11-07T10:46:51.123Z,15.36
2018-11-07T10:49:21.100Z,15.45
2018-11-07T10:51:50.673Z,15.52
2018-11-07T10:54:20.849Z,15.20
2018-11-07T10:56:50.675Z,15.40
2018-11-07T10:59:20.402Z,15.30
2018-11-07T11:01:55.060Z,15.23
2018-11-07T11:04:25.259Z,15.26
2018-11-07T11:06:54.803Z,15.40
2018-11-07T11:09:24.878Z,15.55
2018-11-07T11:11:55.407Z,15.57
2018-11-07T11:14:25.393Z,15.80
2018-11-07T11:16:54.993Z,15.80
2018-11-07T11:19:25.303Z,15.83
2018-11-07T11:21:54.867Z,15.88
2018-11-07T11:24:25.050Z,15.87
2018-11-07T11:26:55.076Z,15.90
2018-11-07T11:29:24.757Z,15.98
2018-11-07T11:31:54.391Z,16.10
2018-11-07T11:34:24.807Z,15.82
2018-11-07T11:36:55.751Z,16.20
2018-11-07T11:39:25.491Z,16.26
2018-11-07T11:41:55.480Z,16.34
2018-11-07T11:44:25.194Z,16.45
2018-11-07T11:46:54.767Z,16.49
2018-11-07T11:49:25.222Z,16.69
2018-11-07T11:51:54.750Z,16.80
2018-11-07T11:54:24.852Z,16.81
2018-11-07T11:56:54.697Z,16.81
2018-11-07T11:59:24.962Z,16.79
2018-11-07T12:01:54.370Z,16.81
2018-11-07T12:04:24.226Z,16.86
2018-11-07T12:06:54.417Z,16.95
2018-11-07T12:09:24.049Z,17.02
2018-11-07T12:11:53.852Z,17.09
2018-11-07T12:14:23.940Z,17.19
2018-11-07T12:16:54.195Z,17.23
2018-11-07T12:19:24.735Z,17.23
2018-11-07T12:21:54.930Z,17.37
2018-11-07T12:24:25.190Z,17.40
2018-11-07T12:26:55.642Z,17.37
2018-11-07T12:29:25.216Z,17.29
2018-11-07T12:31:54.761Z,17.28
2018-11-07T12:34:24.568Z,17.26
2018-11-07T12:36:54.054Z,17.18
2018-11-07T12:39:23.614Z,17.10
2018-11-07T12:41:53.546Z,16.92
2018-11-07T12:44:23.252Z,16.80
2018-11-07T12:46:52.835Z,16.70
2018-11-07T12:49:23.268Z,16.52
2018-11-07T12:51:53.388Z,16.20
2018-11-07T12:54:23.466Z,16.11
2018-11-07T12:56:53.391Z,16.22
2018-11-07T12:59:23.305Z,16.17
2018-11-07T13:01:53.179Z,16.13
2018-11-07T13:04:24.288Z,16.06
2018-11-07T13:06:54.407Z,16.04
2018-11-07T13:09:24.663Z,16.00
2018-11-07T13:11:54.538Z,15.84
2018-11-07T13:14:24.625Z,15.96
2018-11-07T13:16:54.652Z,15.93
2018-11-07T13:19:24.711Z,15.84
2018-11-07T13:21:54.726Z,15.89
2018-11-07T13:24:24.291Z,15.89
2018-11-07T13:26:54.699Z,15.86
2018-11-07T13:29:24.755Z,15.66
2018-11-07T13:31:54.365Z,15.83
2018-11-07T13:34:24.285Z,15.82
2018-11-07T13:36:54.800Z,15.79
2018-11-07T13:39:25.679Z,15.76
2018-11-07T13:41:55.268Z,15.75
2018-11-07T13:44:24.863Z,15.75
2018-11-07T13:46:54.403Z,15.60
2018-11-07T13:49:23.999Z,15.75
2018-11-07T13:51:54.014Z,15.74
2018-11-07T13:54:23.575Z,15.56
2018-11-07T13:56:53.755Z,15.70
2018-11-07T13:59:24.296Z,15.65
2018-11-07T14:01:54.498Z,15.62
2018-11-07T14:04:24.553Z,15.61
2018-11-07T14:06:54.578Z,15.56
2018-11-07T14:09:24.273Z,15.52
2018-11-07T14:11:53.823Z,15.48
2018-11-07T14:14:24.342Z,15.44
2018-11-07T14:16:53.974Z,15.41
2018-11-07T14:19:24.810Z,15.38
2018-11-07T14:21:54.734Z,15.31
2018-11-07T14:24:24.308Z,15.35
2018-11-07T14:26:53.955Z,15.31
2018-11-07T14:29:23.855Z,15.28
2018-11-07T14:31:53.788Z,15.25
2018-11-07T14:34:23.455Z,15.22
2018-11-07T14:36:53.357Z,15.20
2018-11-07T14:39:23.456Z,15.05
2018-11-07T14:41:52.990Z,15.12
2018-11-07T14:44:23.594Z,14.93
2018-11-07T14:46:53.976Z,15.13
2018-11-07T14:49:23.530Z,15.10
2018-11-07T14:51:53.334Z,15.06
2018-11-07T14:54:23.348Z,15.01
2018-11-07T14:56:52.880Z,14.95
2018-11-07T14:59:23.524Z,14.89
2018-11-07T15:01:53.071Z,14.84
2018-11-07T15:04:22.653Z,14.77
2018-11-07T15:06:52.491Z,14.69
2018-11-07T15:09:22.124Z,14.62
2018-11-07T15:11:52.530Z,14.54
2018-11-07T15:14:23.055Z,14.44
2018-11-07T15:16:53.223Z,14.37
2018-11-07T15:19:22.738Z,13.95
2018-11-07T15:21:52.562Z,14.22
2018-11-07T15:24:22.124Z,14.13
2018-11-07T15:26:51.720Z,14.05
2018-11-07T15:29:21.546Z,13.98
2018-11-07T15:31:51.686Z,13.81
2018-11-07T15:34:21.311Z,13.65
2018-11-07T15:36:51.277Z,13.75
2018-11-07T15:39:20.896Z,13.68
2018-11-07T15:41:50.527Z,13.62
2018-11-07T15:44:20.410Z,13.56
2018-11-07T15:46:50.027Z,13.49
2018-11-07T15:49:19.551Z,13.41
2018-11-07T15:51:54.257Z,13.33
2018-11-07T15:54:23.943Z,13.24
2018-11-07T15:56:53.516Z,13.16
2018-11-07T15:59:23.782Z,13.10
2018-11-07T16:01:53.340Z,13.02
2018-11-07T16:04:22.966Z,12.96
2018-11-07T16:06:52.874Z,12.90
2018-11-07T16:09:22.453Z,12.82
2018-11-07T16:11:52.321Z,12.24
2018-11-07T16:14:22.251Z,12.70
2018-11-07T16:16:51.942Z,12.53
2018-11-07T16:19:21.742Z,12.55
2018-11-07T16:21:51.733Z,11.96
2018-11-07T16:24:21.387Z,12.47
2018-11-07T16:26:51.438Z,12.44
2018-11-07T16:29:21.778Z,12.41
2018-11-07T16:31:51.381Z,11.92
2018-11-07T16:34:21.064Z,12.34
2018-11-07T16:36:51.070Z,12.31
2018-11-07T16:39:20.655Z,12.29
2018-11-07T16:41:50.926Z,12.28
2018-11-07T16:44:21.583Z,12.27
2018-11-07T16:46:51.334Z,12.26
2018-11-07T16:49:21.108Z,12.24
2018-11-07T16:51:51.283Z,11.86
2018-11-07T16:54:22.134Z,12.15
2018-11-07T16:56:51.727Z,12.10
2018-11-07T16:59:22.363Z,12.02
2018-11-07T17:01:51.937Z,11.85
2018-11-07T17:04:21.769Z,11.76
2018-11-07T17:06:52.736Z,11.77
2018-11-07T17:09:22.639Z,11.42
2018-11-07T17:11:52.465Z,11.62
2018-11-07T17:14:23.098Z,11.54
2018-11-07T17:16:52.615Z,11.38
2018-11-07T17:19:22.222Z,11.41
2018-11-07T17:21:52.096Z,11.35
2018-11-07T17:24:22.345Z,11.27
2018-11-07T17:26:52.024Z,11.21
2018-11-07T17:29:22.995Z,10.34
2018-11-07T17:31:52.796Z,10.98
2018-11-07T17:34:24.210Z,11.01
2018-11-07T17:36:55.596Z,10.96
2018-11-07T17:39:26.035Z,10.73
2018-11-07T17:41:55.673Z,10.88
2018-11-07T17:44:26.957Z,10.19
2018-11-07T17:46:56.589Z,10.81
2018-11-07T17:49:26.937Z,10.79
2018-11-07T17:51:57.220Z,10.78
2018-11-07T17:54:28.061Z,10.76
2018-11-07T17:56:57.706Z,10.74
2018-11-07T17:59:27.588Z,10.53
2018-11-07T18:01:57.255Z,10.62
2018-11-07T18:04:28.543Z,10.67
2018-11-07T18:06:58.431Z,10.36
2018-11-07T18:09:28.231Z,10.40
2018-11-07T18:11:57.849Z,10.56
2018-11-07T18:14:28.712Z,10.54
2018-11-07T18:16:58.267Z,10.54
2018-11-07T18:19:27.892Z,10.52
2018-11-07T18:21:57.711Z,10.52
2018-11-07T18:24:27.296Z,10.52
2018-11-07T18:26:56.811Z,10.50
2018-11-07T18:29:26.598Z,10.48
2018-11-07T18:31:56.217Z,10.43
2018-11-07T18:34:25.730Z,10.38
2018-11-07T18:36:56.386Z,10.33
2018-11-07T18:39:25.991Z,10.29
2018-11-07T18:41:55.548Z,10.28
2018-11-07T18:44:25.477Z,10.27
2018-11-07T18:46:55.221Z,10.07
2018-11-07T18:49:24.839Z,9.41
2018-11-07T18:51:55.114Z,10.21
2018-11-07T18:54:24.770Z,10.21
2018-11-07T18:56:54.383Z,9.92
2018-11-07T18:59:24.306Z,10.20
2018-11-07T19:01:53.900Z,10.18
2018-11-07T19:04:23.531Z,10.16
2018-11-07T19:06:53.367Z,10.14
2018-11-07T19:09:22.914Z,10.12
2018-11-07T19:11:53.156Z,10.08
2018-11-07T19:14:23.055Z,10.06
2018-11-07T19:16:52.827Z,10.04
2018-11-07T19:19:22.422Z,10.01
2018-11-07T19:21:52.982Z,9.98
2018-11-07T19:24:24.353Z,9.95
2018-11-07T19:26:54.207Z,9.93
2018-11-07T19:29:24.157Z,9.92
2018-11-07T19:31:56.085Z,9.73
2018-11-07T19:34:25.677Z,9.91
2018-11-07T19:36:58.549Z,9.51
2018-11-07T19:39:29.537Z,9.88
2018-11-07T19:42:01.795Z,9.86
2018-11-07T19:44:32.493Z,9.83
2018-11-07T19:47:03.837Z,9.34
2018-11-07T19:49:35.378Z,9.70
2018-11-07T19:52:06.437Z,9.78
2018-11-07T19:54:37.217Z,8.60
2018-11-07T19:57:08.767Z,9.75
2018-11-07T19:59:39.042Z,9.73
2018-11-07T20:02:09.828Z,9.72
2018-11-07T20:04:40.869Z,9.69
2018-11-07T20:07:10.823Z,9.67
2018-11-07T20:09:41.623Z,8.69
2018-11-07T20:12:12.566Z,9.62
2018-11-07T20:14:43.584Z,9.61
2018-11-07T20:26:12.128Z,9.35
2018-11-07T20:28:43.344Z,9.52
2018-11-07T20:31:14.295Z,9.50
2018-11-07T20:33:44.963Z,9.48
2018-11-07T20:36:15.519Z,9.37
2018-11-07T20:38:46.966Z,9.45
2018-11-07T20:41:17.793Z,9.47
2018-11-07T20:43:48.186Z,8.33
2018-11-07T20:46:19.169Z,9.53
2018-11-07T20:48:49.712Z,9.54
2018-11-07T20:51:20.760Z,9.38
2018-11-07T20:53:51.608Z,9.28
2018-11-07T20:56:22.308Z,9.53
2018-11-07T20:58:53.958Z,9.50
2018-11-07T21:01:24.997Z,9.38
2018-11-07T21:03:56.160Z,9.46
2018-11-07T21:06:27.857Z,9.24
2018-11-07T21:08:58.561Z,9.40
2018-11-07T21:11:29.948Z,9.37
2018-11-07T21:14:01.360Z,9.31
2018-11-07T21:16:32.557Z,9.29
2018-11-07T21:35:46.635Z,9.42
2018-11-07T21:38:16.719Z,9.16
2018-11-07T21:40:46.751Z,9.36
2018-11-07T21:43:17.170Z,9.33
2018-11-07T21:45:47.260Z,9.17
2018-11-07T21:48:16.813Z,9.25
2018-11-07T21:50:47.398Z,9.21
2018-11-07T21:53:17.655Z,9.15
2018-11-07T21:55:47.701Z,9.09
2018-11-07T21:58:18.345Z,9.03
2018-11-07T22:00:48.315Z,8.97
2018-11-07T22:03:17.973Z,8.92
2018-11-07T22:05:48.095Z,8.86
2018-11-07T22:08:18.436Z,8.78
2018-11-07T22:10:48.010Z,8.70
2018-11-07T22:13:18.091Z,8.64
2018-11-07T22:15:47.685Z,8.61
2018-11-07T22:18:17.391Z,8.58
2018-11-07T22:20:47.402Z,8.34
2018-11-07T22:23:16.996Z,8.54
2018-11-07T22:25:47.195Z,8.53
2018-11-07T22:28:17.387Z,8.50
2018-11-07T22:30:47.031Z,8.49
2018-11-07T22:33:17.655Z,8.47
2018-11-07T22:35:49.231Z,8.45
2018-11-07T22:38:18.886Z,8.42
2018-11-07T22:40:48.479Z,8.41
2018-11-07T22:43:19.991Z,8.24
2018-11-07T22:45:50.854Z,8.03
2018-11-07T22:48:21.538Z,8.35
2018-11-07T22:50:51.654Z,8.33
2018-11-07T22:53:21.731Z,8.32
2018-11-07T22:55:52.115Z,8.31
2018-11-07T22:58:22.271Z,8.27
2018-11-07T23:00:56.823Z,8.28
2018-11-07T23:03:26.825Z,8.27
2018-11-07T23:05:57.139Z,8.28
2018-11-07T23:08:26.935Z,8.27
2018-11-07T23:10:57.454Z,8.02
2018-11-07T23:13:27.022Z,8.25
2018-11-07T23:15:57.223Z,8.21
2018-11-07T23:18:27.179Z,8.21
2018-11-07T23:20:57.539Z,8.18
2018-11-07T23:23:27.755Z,8.16
2018-11-07T23:25:57.634Z,8.13
2018-11-07T23:28:27.170Z,8.10
2018-11-07T23:30:56.725Z,8.08
2018-11-07T23:33:39.192Z,8.05
2018-11-07T23:36:10.120Z,7.99
2018-11-07T23:38:40.854Z,7.97
2018-11-07T23:41:11.181Z,7.98
2018-11-07T23:43:40.796Z,7.98
2018-11-07T23:46:11.203Z,7.98
2018-11-07T23:48:42.027Z,7.98
2018-11-07T23:51:12.231Z,7.67
2018-11-07T23:53:42.543Z,7.99
2018-11-07T23:56:12.123Z,7.98
2018-11-07T23:58:42.043Z,7.97
